Saline, United Kingdom
Current Conditions -  °F | °C
As of 1:50 PM on Thursday 23 Oct 2014 (Local Time) from EGPH Reporting Station
Scattered Clouds Scattered Clouds  
Wind Chill: 57°   Ceiling: Unl
Heat Index: 57°   Visibility: 6mi
Dew Point: 54°   Wind: 13mph
Humidity: 88%   Direction: 210°SSW
Pressure: 29.74"   Gusts: NA
Location:  56.11°N, 3.57°W
Report Text: EGPH 231250Z 21011KT 9000 FEW016 SCT027 14/12 Q1007
Loading
Personal Weather Stations






























Interactive Weather Map New forecast layout! Learn more

10-Day Weather Forecast

Advertisements
Track Severe Weather on mobile